Nearby METAR Reports

This page may be slow to load as it queries the National Weather Service for data.

KBIS - Bismarck, North Dakota, USA
Distance from station: S 10mi, 15km
Updated: Wed, 30-Sep-2020 12:52am CDT
Clear
Clear
 Wind from NW
Wind: NW 13 mph , 20 km/h, Gust: 22 mph , 35 km/h
Temperature: 54°F , 12°C
Dew Point: 36°F , 2°C
Humidity: 51%
Barometer: 29.89 inHg , 1012.2 hPa
Clouds: Clear
Visibility: 10 miles , 16 km
2020/09/30 05:52 KBIS 300552Z AUTO 31011G19KT 10SM CLR 12/02 A2989 RMK AO2 SLP120 60000 T01220022 10211 20122 402390106 51020
KDIK - Dickinson, North Dakota, USA
Distance from station: W 95mi, 154km
Updated: Tue, 29-Sep-2020 11:56pm CDT
Clear
Clear
 Wind from NNW
Wind: NNW 17 mph , 28 km/h, Gust: 30 mph , 48 km/h
Temperature: 55°F , 13°C
Dew Point: 30°F , -1°C
Humidity: 38%
Barometer: 29.94 inHg , 1013.9 hPa
Clouds: Clear
Visibility: 10 miles , 16 km
2020/09/30 04:56 KDIK 300456Z AUTO 34015G26KT 10SM CLR 13/M01 A2994 RMK AO2 PK WND 33033/0434 SLP132 T01331011
 
KXWA - Williston, North Dakota, USA
Distance from station: NNW 2mi, 2km
Updated: Wed, 30-Sep-2020 12:51am CDT
Clear
Clear
 Wind from NW
Wind: NW 17 mph , 28 km/h
Temperature: 48°F , 9°C
Wind Chill: 42°F , 6°C
Dew Point: 30°F , -1°C
Humidity: 50%
Barometer: 30.01 inHg , 1016.3 hPa
Clouds: Clear
Visibility: 10 miles , 16 km
2020/09/30 05:51 KXWA 300551Z AUTO 32015KT 10SM CLR 09/M01 A3001 RMK AO2 PK WND 31033/0458 SLP008 T00891006 10178 20089 402220083 51019
KFAR - Fargo, North Dakota, USA
Distance from station: NNW 4mi, 7km
Updated: Wed, 30-Sep-2020 12:53am CDT
Mostly cloudy
Mostly cloudy
 Wind from N
Wind: N 14 mph , 22 km/h
Temperature: 52°F , 11°C
Dew Point: 43°F , 6°C
Humidity: 72%
Barometer: 29.69 inHg , 1005.4 hPa
Clouds: Mostly cloudy
Visibility: 10 miles , 16 km
Cloud details: Partly cloudy 7500 ft
Mostly cloudy 9500 ft
2020/09/30 05:53 KFAR 300553Z AUTO 35012KT 10SM SCT075 BKN095 11/06 A2969 RMK AO2 PK WND 32028/0501 SLP055 T01110056 10172 20111 402220072 53020
 
KGFK - Grand Forks, North Dakota, USA
Distance from station: NNW 76mi, 123km
Updated: Wed, 30-Sep-2020 12:53am CDT
Partly cloudy
Partly cloudy
 Wind from NNW
Wind: NNW 7 mph , 11 km/h
Temperature: 48°F , 9°C
Wind Chill: 45°F , 7°C
Dew Point: 45°F , 7°C
Humidity: 87%
Barometer: 29.70 inHg , 1005.8 hPa
Clouds: Partly cloudy
Visibility: 10 miles , 16 km
Cloud details: Partly cloudy 10000 ft
2020/09/30 05:53 KGFK 300553Z AUTO 33006KT 10SM SCT100 09/07 A2970 RMK AO2 SLP060 60006 T00890067 10161 20089 402110067 51023
KMOT - Minot, North Dakota, USA
Distance from station: E 109mi, 175km
Updated: Wed, 30-Sep-2020 12:54am CDT
Mostly cloudy
Mostly cloudy
 Wind from WNW
Wind: WNW 18 mph , 30 km/h, Gust: 28 mph , 44 km/h
Temperature: 52°F , 11°C
Dew Point: 36°F , 2°C
Humidity: 54%
Barometer: 29.88 inHg , 1011.9 hPa
Clouds: Mostly cloudy
Visibility: 10 miles , 16 km
Cloud details: Mostly cloudy 9000 ft
2020/09/30 05:54 KMOT 300554Z AUTO 30016G24KT 10SM BKN090 11/02 A2988 RMK AO2 PK WND 30031/0505 SLP119 T01060022 10150 20106 402060106 53018